createdAt,value
2022-08-03T00:03:38.319Z,62.08
2022-08-03T00:08:41.197Z,62.15
2022-08-03T00:13:44.119Z,61.93
2022-08-03T00:18:48.274Z,61.69
2022-08-03T00:23:52.875Z,61.65
2022-08-03T00:28:55.896Z,62.50
2022-08-03T00:34:03.324Z,62.69
2022-08-03T00:39:06.427Z,62.18
2022-08-03T00:44:09.184Z,62.65
2022-08-03T00:49:13.444Z,62.66
2022-08-03T00:54:16.840Z,62.84
2022-08-03T00:59:19.615Z,63.04
2022-08-03T01:04:24.089Z,62.93
2022-08-03T01:09:37.845Z,63.03
2022-08-03T01:14:45.602Z,63.18
2022-08-03T01:19:57.964Z,63.20
2022-08-03T01:25:07.559Z,63.34
2022-08-03T01:30:13.335Z,62.55
2022-08-03T01:35:22.379Z,63.34
2022-08-03T01:40:28.460Z,63.27
2022-08-03T01:45:34.385Z,63.40
2022-08-03T01:50:38.009Z,63.32
2022-08-03T01:55:42.176Z,63.58
2022-08-03T02:00:49.231Z,63.56
2022-08-03T02:06:17.930Z,63.44
2022-08-03T02:11:18.266Z,63.76
2022-08-03T02:16:24.650Z,63.73
2022-08-03T02:21:55.627Z,63.64
2022-08-03T02:26:56.485Z,63.87
2022-08-03T02:32:04.513Z,63.43
2022-08-03T02:37:09.593Z,63.87
2022-08-03T02:42:15.406Z,63.70
2022-08-03T02:47:22.106Z,63.91
2022-08-03T02:52:28.152Z,63.93
2022-08-03T02:57:32.638Z,63.26
2022-08-03T03:02:38.239Z,63.94
2022-08-03T03:07:52.061Z,63.70
2022-08-03T03:12:57.683Z,63.33
2022-08-03T03:18:02.871Z,63.95
2022-08-03T03:23:06.867Z,63.84
2022-08-03T03:28:11.893Z,63.65
2022-08-03T03:33:16.311Z,63.60
2022-08-03T03:38:19.933Z,63.59
2022-08-03T03:43:24.573Z,63.35
2022-08-03T03:48:29.236Z,63.12
2022-08-03T03:53:35.098Z,63.16
2022-08-03T03:58:37.963Z,63.65
2022-08-03T04:03:42.073Z,64.10
2022-08-03T04:09:13.991Z,63.94
2022-08-03T04:14:20.382Z,64.00
2022-08-03T04:19:29.499Z,64.25
2022-08-03T04:24:36.303Z,64.38
2022-08-03T04:29:44.806Z,63.63
2022-08-03T04:34:53.509Z,64.89
2022-08-03T04:39:59.516Z,64.84
2022-08-03T04:45:04.990Z,64.64
2022-08-03T04:50:13.539Z,64.35
2022-08-03T04:55:26.950Z,64.62
2022-08-03T05:00:30.389Z,64.46
2022-08-03T05:05:49.972Z,64.50
2022-08-03T05:10:53.777Z,64.81
2022-08-03T05:15:56.608Z,65.18
2022-08-03T05:21:00.795Z,65.45
2022-08-03T05:26:03.748Z,65.27
2022-08-03T05:31:06.621Z,65.69
2022-08-03T05:36:10.768Z,66.07
2022-08-03T05:41:22.972Z,66.10
2022-08-03T05:46:26.826Z,66.39
2022-08-03T05:51:31.501Z,66.96
2022-08-03T05:56:34.243Z,67.41
2022-08-03T06:01:37.064Z,67.60
2022-08-03T06:06:42.087Z,67.21
2022-08-03T06:11:44.856Z,67.53
2022-08-03T06:16:48.796Z,67.63
2022-08-03T06:21:52.999Z,67.66
2022-08-03T06:26:56.097Z,68.07
2022-08-03T06:31:58.809Z,68.18
2022-08-03T06:37:02.890Z,68.32
2022-08-03T06:42:06.034Z,68.41
2022-08-03T06:47:13.097Z,68.32
2022-08-03T06:52:37.984Z,67.61
2022-08-03T06:57:40.099Z,68.54
2022-08-03T07:02:43.051Z,68.01
2022-08-03T07:07:47.485Z,67.56
2022-08-03T07:12:55.597Z,67.70
2022-08-03T07:18:00.049Z,67.20
2022-08-03T07:23:04.276Z,67.25
2022-08-03T07:28:07.200Z,67.24
2022-08-03T07:33:09.948Z,67.42
2022-08-03T07:38:14.095Z,66.88
2022-08-03T07:43:17.777Z,65.01
2022-08-03T07:48:20.742Z,65.20
2022-08-03T07:53:24.729Z,64.93
2022-08-03T07:58:27.485Z,64.53
2022-08-03T08:03:30.437Z,64.42
2022-08-03T08:08:55.170Z,63.75
2022-08-03T08:13:57.970Z,63.70
2022-08-03T08:19:02.009Z,64.42
2022-08-03T08:24:10.944Z,64.01
2022-08-03T08:29:23.113Z,63.68
2022-08-03T08:34:25.874Z,62.83
2022-08-03T08:39:29.890Z,62.46
2022-08-03T08:44:32.657Z,62.54
2022-08-03T08:49:37.025Z,62.21
2022-08-03T08:54:45.628Z,62.75
2022-08-03T08:59:49.726Z,62.83
2022-08-03T09:04:54.388Z,62.55
2022-08-03T09:10:11.085Z,62.42
2022-08-03T09:15:26.722Z,63.06
2022-08-03T09:20:31.467Z,63.25
2022-08-03T09:25:37.375Z,63.34
2022-08-03T09:30:42.169Z,63.20
2022-08-03T09:35:57.361Z,63.56
2022-08-03T09:41:01.947Z,63.47
2022-08-03T09:46:07.371Z,63.53
2022-08-03T09:51:14.334Z,63.51
2022-08-03T09:56:45.245Z,63.90
2022-08-03T10:01:48.090Z,63.89
2022-08-03T10:07:06.788Z,63.82
2022-08-03T10:12:12.560Z,63.84
2022-08-03T10:17:15.598Z,63.91
2022-08-03T10:22:20.789Z,63.71
2022-08-03T10:27:26.048Z,63.72
2022-08-03T10:32:32.553Z,63.68
2022-08-03T10:37:41.926Z,63.73
2022-08-03T10:43:08.933Z,63.98
2022-08-03T10:48:12.226Z,63.73
2022-08-03T10:53:15.338Z,63.60
2022-08-03T10:58:57.703Z,63.73
2022-08-03T11:04:18.325Z,63.74
2022-08-03T11:09:21.138Z,63.65
2022-08-03T11:14:25.242Z,63.86
2022-08-03T11:19:56.742Z,63.88
2022-08-03T11:25:02.150Z,63.78
2022-08-03T11:30:10.962Z,63.87
2022-08-03T11:35:16.149Z,63.52
2022-08-03T11:40:35.501Z,63.66
2022-08-03T11:45:39.786Z,63.66
2022-08-03T11:50:45.213Z,63.52
2022-08-03T11:55:49.975Z,63.53
2022-08-03T12:00:54.675Z,63.80
2022-08-03T12:05:57.418Z,63.97
2022-08-03T12:11:02.903Z,63.98
2022-08-03T12:16:07.888Z,64.05
2022-08-03T12:21:12.392Z,64.07
2022-08-03T12:26:15.455Z,64.09
2022-08-03T12:31:19.657Z,63.93
2022-08-03T12:36:22.816Z,63.88
2022-08-03T12:41:31.191Z,64.11
2022-08-03T12:46:37.576Z,63.95
2022-08-03T12:51:57.903Z,64.47
2022-08-03T12:57:03.033Z,64.30
2022-08-03T13:02:09.317Z,64.92
2022-08-03T13:07:14.487Z,65.57
2022-08-03T13:12:20.949Z,65.51
2022-08-03T13:17:25.392Z,65.59
2022-08-03T13:22:29.349Z,65.65
2022-08-03T13:28:13.895Z,65.60
2022-08-03T13:32:58.461Z,65.58
2022-08-03T13:38:01.705Z,65.62
2022-08-03T13:43:05.057Z,65.75
2022-08-03T13:48:09.416Z,65.89
2022-08-03T13:53:12.185Z,65.87
2022-08-03T13:58:15.271Z,65.83
2022-08-03T14:03:19.420Z,65.86
2022-08-03T14:08:22.173Z,65.91
2022-08-03T14:13:25.063Z,65.81
2022-08-03T14:18:33.755Z,66.13
2022-08-03T14:23:38.457Z,66.18
2022-08-03T14:28:42.045Z,66.17
2022-08-03T14:33:46.158Z,66.26
2022-08-03T14:38:50.193Z,66.62
2022-08-03T14:44:00.403Z,66.57
2022-08-03T14:50:36.346Z,66.69
2022-08-03T14:54:30.912Z,66.67
2022-08-03T14:59:56.453Z,66.62
2022-08-03T15:04:57.932Z,66.56
2022-08-03T15:10:02.259Z,66.52
2022-08-03T15:15:05.883Z,66.20
2022-08-03T15:20:25.468Z,66.21
2022-08-03T15:26:04.210Z,66.23
2022-08-03T15:30:57.122Z,66.10
2022-08-03T15:36:01.259Z,66.00
2022-08-03T15:41:04.049Z,65.77
2022-08-03T15:51:31.498Z,65.76
2022-08-03T15:56:34.560Z,65.58
2022-08-03T16:01:37.406Z,65.47
2022-08-03T16:06:41.662Z,65.72
2022-08-03T16:11:44.413Z,66.03
2022-08-03T16:16:47.291Z,66.70
2022-08-03T16:21:51.558Z,66.79
2022-08-03T16:26:54.306Z,67.50
2022-08-03T16:31:57.066Z,67.62
2022-08-03T16:37:16.555Z,67.76
2022-08-03T16:42:23.887Z,67.60
2022-08-03T16:47:26.798Z,67.73
2022-08-03T16:52:30.919Z,67.63
2022-08-03T16:57:58.440Z,67.89
2022-08-03T17:02:59.708Z,67.52
2022-08-03T17:08:10.566Z,67.28
2022-08-03T17:13:22.473Z,67.58
2022-08-03T17:18:29.646Z,67.47
2022-08-03T17:23:40.892Z,67.11
2022-08-03T17:28:50.181Z,67.30
2022-08-03T17:33:55.506Z,67.28
2022-08-03T17:39:01.299Z,67.01
2022-08-03T17:44:14.887Z,66.87
2022-08-03T17:49:24.792Z,67.13
2022-08-03T17:54:36.807Z,66.87
2022-08-03T18:00:27.095Z,66.72
2022-08-03T18:06:11.887Z,66.59
2022-08-03T18:10:57.883Z,66.42
2022-08-03T18:16:08.460Z,66.52
2022-08-03T18:21:16.888Z,65.91
2022-08-03T18:26:22.918Z,65.88
2022-08-03T18:31:59.921Z,65.86
2022-08-03T18:36:50.358Z,65.80
2022-08-03T18:41:54.552Z,65.92
2022-08-03T18:47:18.005Z,66.00
2022-08-03T18:52:27.851Z,65.26
2022-08-03T18:57:39.256Z,65.14
2022-08-03T19:02:49.338Z,65.36
2022-08-03T19:07:59.600Z,65.00
2022-08-03T19:13:11.674Z,65.34
2022-08-03T19:18:17.974Z,65.26
2022-08-03T19:23:24.593Z,65.18
2022-08-03T19:28:30.930Z,65.26
2022-08-03T19:33:55.858Z,65.10
2022-08-03T19:38:59.492Z,64.79
2022-08-03T19:44:06.954Z,65.02
2022-08-03T19:49:15.974Z,65.04
2022-08-03T19:54:25.298Z,64.90
2022-08-03T19:59:42.017Z,64.88
2022-08-03T20:04:53.061Z,64.74
2022-08-03T20:09:57.050Z,64.22
2022-08-03T20:15:01.573Z,64.31
2022-08-03T20:20:05.647Z,64.22
2022-08-03T20:25:12.454Z,63.98
2022-08-03T20:30:20.722Z,63.52
2022-08-03T20:35:30.233Z,62.14
2022-08-03T20:40:34.058Z,61.28
2022-08-03T20:46:00.267Z,61.91
2022-08-03T20:51:02.139Z,63.08
2022-08-03T20:56:05.784Z,63.29
2022-08-03T21:01:12.783Z,62.61
2022-08-03T21:06:27.336Z,63.05
2022-08-03T21:11:41.902Z,62.79
2022-08-03T21:16:46.539Z,62.53
2022-08-03T21:21:50.564Z,62.25
2022-08-03T21:26:55.838Z,62.57
2022-08-03T21:32:00.452Z,61.72
2022-08-03T21:37:03.960Z,61.24
2022-08-03T21:42:07.076Z,61.44
2022-08-03T21:47:13.224Z,62.25
2022-08-03T21:52:17.239Z,62.57
2022-08-03T21:57:23.985Z,62.65
2022-08-03T22:02:32.067Z,62.63
2022-08-03T22:07:35.880Z,62.31
2022-08-03T22:12:39.893Z,62.49
2022-08-03T22:17:54.919Z,62.47
2022-08-03T22:23:02.985Z,62.35
2022-08-03T22:28:09.296Z,61.63
2022-08-03T22:33:15.554Z,61.37
2022-08-03T22:38:19.288Z,61.10
2022-08-03T22:43:24.716Z,61.38
2022-08-03T22:48:29.368Z,60.61
2022-08-03T22:53:36.006Z,60.38
2022-08-03T22:58:38.812Z,60.25
2022-08-03T23:03:58.901Z,60.36
2022-08-03T23:09:07.154Z,60.58
2022-08-03T23:14:12.879Z,61.02
2022-08-03T23:19:25.106Z,60.93
2022-08-03T23:24:30.185Z,60.93
2022-08-03T23:29:35.855Z,60.93
2022-08-03T23:34:59.131Z,60.85
2022-08-03T23:40:03.666Z,61.00
2022-08-03T23:45:07.433Z,61.30
2022-08-03T23:50:12.422Z,61.48
2022-08-03T23:55:22.975Z,61.64
